Time;durP1;ratioP1;P1;durP2;ratioP2;P2;SDS_P1;SDS_P2;PMS_P1;PMS_P2;Temp;Humidity;BMP_temperature;BMP_pressure;BME280_temperature;BME280_humidity;BME280_pressure;Samples;Min_cycle;Max_cycle;Signal;HPM_P1;HPM_P2
2022/08/30 00:02:53;;;;;;;1999.90;999.90;;;18.00;64.50;;;;;;5031969;28;20180;-64
2022/08/30 00:05:22;;;;;;;1999.90;999.90;;;18.00;81.70;;;;;;5031908;28;20207;-64
2022/08/30 00:07:49;;;;;;;1999.90;999.90;;;18.00;92.10;;;;;;5033575;28;20680;-64
2022/08/30 00:10:16;;;;;;;1999.90;999.90;;;18.00;99.90;;;;;;5035437;28;20200;-64
2022/08/30 00:12:43;;;;;;;1999.90;999.90;;;18.00;99.90;;;;;;5035150;28;20199;-65
2022/08/30 00:15:12;;;;;;;1999.90;999.90;;;18.00;99.90;;;;;;5035329;28;20199;-64
2022/08/30 00:17:39;;;;;;;1999.90;999.90;;;18.00;99.90;;;;;;5035280;28;20207;-64
2022/08/30 00:20:12;;;;;;;1999.90;999.90;;;17.90;99.90;;;;;;5035156;28;20212;-64
2022/08/30 00:22:40;;;;;;;1999.90;999.90;;;17.90;99.90;;;;;;5034961;28;20190;-64
2022/08/30 00:25:08;;;;;;;1999.90;999.90;;;17.90;99.90;;;;;;5035113;28;20206;-64
2022/08/30 00:27:35;;;;;;;1999.90;999.90;;;17.90;99.90;;;;;;5034830;28;20307;-64
2022/08/30 00:30:03;;;;;;;1999.90;999.90;;;17.90;99.90;;;;;;5034806;28;20681;-64
2022/08/30 00:32:30;;;;;;;1999.90;999.90;;;17.90;99.90;;;;;;5035063;28;20211;-64
2022/08/30 00:34:57;;;;;;;1999.90;999.90;;;18.00;99.90;;;;;;5034948;28;20194;-64
2022/08/30 00:37:24;;;;;;;1999.90;999.90;;;18.00;99.90;;;;;;5034892;28;20202;-65
2022/08/30 00:39:53;;;;;;;1999.90;999.90;;;18.00;99.90;;;;;;5034847;28;20216;-65
2022/08/30 00:42:21;;;;;;;1999.90;999.90;;;18.00;99.90;;;;;;5034560;28;20207;-64
2022/08/30 00:44:48;;;;;;;1999.90;999.90;;;18.10;99.90;;;;;;5034832;28;20197;-65
2022/08/30 00:47:16;;;;;;;1999.90;999.90;;;18.10;99.90;;;;;;5034559;28;20207;-64
2022/08/30 00:49:47;;;;;;;1999.90;999.90;;;18.00;99.90;;;;;;5034690;28;20205;-64
2022/08/30 00:52:16;;;;;;;1999.90;999.90;;;18.10;99.90;;;;;;5034400;28;20541;-65
2022/08/30 00:54:45;;;;;;;1999.90;999.90;;;18.00;99.90;;;;;;5034569;28;20207;-65
2022/08/30 00:57:14;;;;;;;1999.90;999.90;;;18.10;99.90;;;;;;5034289;28;20238;-65
2022/08/30 00:59:44;;;;;;;1999.90;999.90;;;18.00;99.90;;;;;;5034497;28;20226;-64
2022/08/30 01:02:12;;;;;;;1999.90;999.90;;;18.00;99.90;;;;;;5034486;28;20204;-64
2022/08/30 01:04:42;;;;;;;1999.90;999.90;;;18.00;99.90;;;;;;5034155;28;20203;-65
2022/08/30 01:07:09;;;;;;;1999.90;999.90;;;18.00;99.90;;;;;;5034453;28;20194;-64
2022/08/30 01:09:37;;;;;;;1999.90;999.90;;;18.00;99.90;;;;;;5034310;28;20197;-65
2022/08/30 01:12:05;;;;;;;1999.90;999.90;;;18.00;99.90;;;;;;5034000;28;20222;-64
2022/08/30 01:14:34;;;;;;;1999.90;999.90;;;18.00;99.90;;;;;;5034053;28;20203;-67
2022/08/30 01:17:02;;;;;;;1999.90;999.90;;;18.00;99.90;;;;;;5033677;28;20208;-67
2022/08/30 01:19:38;;;;;;;1999.90;999.90;;;18.00;99.90;;;;;;5032672;28;20238;-67
2022/08/30 01:22:16;;;;;;;1999.90;999.90;;;18.00;99.90;;;;;;5034129;28;20209;-67
2022/08/30 01:24:46;;;;;;;1999.90;999.90;;;18.00;99.90;;;;;;5033950;28;20234;-68
2022/08/30 01:27:14;;;;;;;1999.90;999.90;;;18.00;99.90;;;;;;5034052;28;20234;-67
2022/08/30 01:29:43;;;;;;;1999.90;999.90;;;18.00;99.90;;;;;;5034000;28;20194;-67
2022/08/30 01:32:17;;;;;;;1999.90;999.90;;;17.90;99.90;;;;;;5033982;28;20207;-67
2022/08/30 01:34:45;;;;;;;1999.90;999.90;;;17.90;99.90;;;;;;5033909;28;20210;-67
2022/08/30 01:37:14;;;;;;;1999.90;999.90;;;17.90;99.90;;;;;;5033541;28;20652;-68
2022/08/30 01:39:41;;;;;;;1999.90;999.90;;;17.90;99.90;;;;;;5033323;28;20236;-67
2022/08/30 01:42:09;;;;;;;1999.90;999.90;;;17.90;99.90;;;;;;5033784;28;20205;-68
2022/08/30 01:44:36;;;;;;;1999.90;999.90;;;17.80;99.90;;;;;;5033677;28;20202;-67
2022/08/30 01:47:04;;;;;;;1999.90;999.90;;;17.80;99.90;;;;;;5033290;28;20198;-69
2022/08/30 01:49:31;;;;;;;1999.90;999.90;;;17.80;99.90;;;;;;5033539;28;20205;-67
2022/08/30 01:51:58;;;;;;;1999.90;999.90;;;17.80;99.90;;;;;;5033603;28;20198;-69
2022/08/30 01:54:25;;;;;;;1999.90;999.90;;;17.70;99.90;;;;;;5033429;28;20254;-68
2022/08/30 01:56:52;;;;;;;1999.90;999.90;;;17.70;99.90;;;;;;5033131;28;20291;-69
2022/08/30 01:59:21;;;;;;;1999.90;999.90;;;17.70;99.90;;;;;;5033374;28;20218;-68
2022/08/30 02:01:48;;;;;;;1999.90;999.90;;;17.60;99.90;;;;;;5033354;28;20203;-68
2022/08/30 02:04:15;;;;;;;1999.90;999.90;;;17.60;99.90;;;;;;5033365;28;20208;-68
2022/08/30 02:06:43;;;;;;;1999.90;999.90;;;17.60;99.90;;;;;;5033345;28;20195;-68
2022/08/30 02:09:10;;;;;;;1999.90;999.90;;;17.60;99.90;;;;;;5032958;28;20198;-68
2022/08/30 02:11:38;;;;;;;1999.90;999.90;;;17.50;99.90;;;;;;5032894;28;20579;-68
2022/08/30 02:14:05;;;;;;;1999.90;999.90;;;17.40;99.90;;;;;;5033117;28;20208;-68
2022/08/30 02:16:34;;;;;;;1999.90;999.90;;;17.40;99.90;;;;;;5032719;28;20246;-68
2022/08/30 02:19:01;;;;;;;1999.90;999.90;;;17.30;99.90;;;;;;5032818;28;20675;-67
2022/08/30 02:21:28;;;;;;;1999.90;999.90;;;17.30;99.90;;;;;;5033013;28;20198;-67
2022/08/30 02:23:56;;;;;;;1999.90;999.90;;;17.30;99.90;;;;;;5032701;28;20201;-69
2022/08/30 02:26:23;;;;;;;1999.90;999.90;;;17.20;99.90;;;;;;5032660;28;20200;-68
2022/08/30 02:28:50;;;;;;;1999.90;999.90;;;17.20;99.90;;;;;;5032975;28;20204;-67
2022/08/30 02:31:19;;;;;;;1999.90;999.90;;;17.10;99.90;;;;;;5032669;28;20203;-67
2022/08/30 02:33:49;;;;;;;1999.90;999.90;;;17.10;99.90;;;;;;5032874;28;20205;-67
2022/08/30 02:36:17;;;;;;;1999.90;999.90;;;17.00;99.90;;;;;;5032895;28;20231;-67
2022/08/30 02:38:44;;;;;;;1999.90;999.90;;;17.00;99.90;;;;;;5032716;28;20577;-67
2022/08/30 02:41:11;;;;;;;1999.90;999.90;;;17.00;99.90;;;;;;5032413;28;20717;-67
2022/08/30 02:43:38;;;;;;;1999.90;999.90;;;16.90;99.90;;;;;;5032703;28;20199;-67
2022/08/30 02:46:05;;;;;;;1999.90;999.90;;;16.90;99.90;;;;;;5032629;28;20206;-68
2022/08/30 02:48:32;;;;;;;1999.90;999.90;;;16.80;99.90;;;;;;5032392;28;20688;-69
2022/08/30 02:51:06;;;;;;;1999.90;999.90;;;16.90;99.90;;;;;;5032559;28;20198;-67
2022/08/30 02:53:33;;;;;;;1999.90;999.90;;;16.90;99.90;;;;;;5032700;28;20188;-67
2022/08/30 02:56:00;;;;;;;1999.90;999.90;;;16.90;99.90;;;;;;5032100;28;20569;-68
2022/08/30 02:58:27;;;;;;;1999.90;999.90;;;17.00;99.90;;;;;;5032395;28;20193;-68
2022/08/30 03:00:54;;;;;;;1999.90;999.90;;;17.00;99.90;;;;;;5032450;28;20262;-68
2022/08/30 03:03:21;;;;;;;1999.90;999.90;;;16.90;99.90;;;;;;5032519;28;20198;-68
2022/08/30 03:05:48;;;;;;;1999.90;999.90;;;16.90;99.90;;;;;;5032231;28;20674;-68
2022/08/30 03:08:17;;;;;;;1999.90;999.90;;;16.90;99.90;;;;;;5032463;28;20215;-69
2022/08/30 03:10:44;;;;;;;1999.90;999.90;;;16.90;99.90;;;;;;5032499;28;20201;-68
2022/08/30 03:13:12;;;;;;;1999.90;999.90;;;16.90;99.90;;;;;;5032144;28;20680;-67
2022/08/30 03:15:39;;;;;;;1999.90;999.90;;;16.90;99.90;;;;;;5032009;28;20687;-67
2022/08/30 03:18:07;;;;;;;1999.90;999.90;;;16.90;99.90;;;;;;5032117;28;20228;-66
2022/08/30 03:20:34;;;;;;;1999.90;999.90;;;16.90;99.90;;;;;;5032203;28;20208;-68
2022/08/30 03:23:02;;;;;;;1999.90;999.90;;;16.90;99.90;;;;;;5032398;28;20695;-67
2022/08/30 03:25:30;;;;;;;1999.90;999.90;;;16.90;99.90;;;;;;5031910;28;20209;-69
2022/08/30 03:27:57;;;;;;;1999.90;999.90;;;16.80;99.90;;;;;;5032030;28;20203;-68
2022/08/30 03:30:25;;;;;;;1999.90;999.90;;;16.80;99.90;;;;;;5032226;28;20200;-67
2022/08/30 03:32:52;;;;;;;1999.90;999.90;;;16.80;99.90;;;;;;5032322;28;20206;-68
2022/08/30 03:35:19;;;;;;;1999.90;999.90;;;16.70;99.90;;;;;;5031986;28;20202;-67
2022/08/30 03:37:48;;;;;;;1999.90;999.90;;;16.80;99.90;;;;;;5032218;28;20208;-68
2022/08/30 03:40:17;;;;;;;1999.90;999.90;;;16.70;99.90;;;;;;5031873;28;20727;-69
2022/08/30 03:42:46;;;;;;;1999.90;999.90;;;16.70;99.90;;;;;;5034146;28;20244;-67
2022/08/30 03:45:14;;;;;;;1999.90;999.90;;;16.70;99.90;;;;;;5035564;28;20197;-67
2022/08/30 03:47:42;;;;;;;1999.90;999.90;;;16.70;99.90;;;;;;5035656;28;20227;-68
2022/08/30 03:50:10;;;;;;;1999.90;999.90;;;16.70;99.90;;;;;;5035915;28;20190;-67
2022/08/30 03:52:38;;;;;;;1999.90;999.90;;;16.70;99.90;;;;;;5035548;28;20585;-67
2022/08/30 03:55:06;;;;;;;1999.90;999.90;;;16.70;99.90;;;;;;5035778;28;20202;-67
2022/08/30 03:57:33;;;;;;;1999.90;999.90;;;16.70;99.90;;;;;;5035351;28;20230;-68
2022/08/30 04:00:03;;;;;;;1999.90;999.90;;;16.70;99.90;;;;;;5035803;28;20219;-69
2022/08/30 04:02:30;;;;;;;1999.90;999.90;;;16.70;99.90;;;;;;5035266;28;20223;-69
2022/08/30 04:04:57;;;;;;;1999.90;999.90;;;16.70;99.90;;;;;;5035389;28;20206;-69
2022/08/30 04:07:24;;;;;;;1999.90;999.90;;;16.70;99.90;;;;;;5035250;28;20672;-69
2022/08/30 04:09:51;;;;;;;1999.90;999.90;;;16.70;99.90;;;;;;5035270;28;20199;-70
2022/08/30 04:12:18;;;;;;;1999.90;999.90;;;16.60;99.90;;;;;;5035488;28;20202;-70
2022/08/30 04:14:46;;;;;;;1999.90;999.90;;;16.60;99.90;;;;;;5035554;28;20248;-69
2022/08/30 04:17:14;;;;;;;1999.90;999.90;;;16.60;99.90;;;;;;5035004;28;20196;-69
2022/08/30 04:19:41;;;;;;;1999.90;999.90;;;16.60;99.90;;;;;;5035111;28;20671;-70
2022/08/30 04:22:08;;;;;;;1999.90;999.90;;;16.60;99.90;;;;;;5035042;28;20692;-70
2022/08/30 04:24:37;;;;;;;1999.90;999.90;;;16.50;99.90;;;;;;5035201;28;20205;-71
2022/08/30 04:27:05;;;;;;;1999.90;999.90;;;16.50;99.90;;;;;;5035203;28;20204;-70
2022/08/30 04:29:32;;;;;;;1999.90;999.90;;;16.40;99.90;;;;;;5035231;28;20200;-72
2022/08/30 04:31:59;;;;;;;1999.90;999.90;;;16.40;99.90;;;;;;5035002;28;20567;-70
2022/08/30 04:34:28;;;;;;;1999.90;999.90;;;16.40;99.90;;;;;;5035286;28;20205;-69
2022/08/30 04:36:55;;;;;;;1999.90;999.90;;;16.40;99.90;;;;;;5035152;28;20231;-69
2022/08/30 04:39:22;;;;;;;1999.90;999.90;;;16.50;99.90;;;;;;5035147;28;20210;-67
2022/08/30 04:41:49;;;;;;;1999.90;999.90;;;16.50;99.90;;;;;;5034991;28;20219;-69
2022/08/30 04:44:16;;;;;;;1999.90;999.90;;;16.60;99.90;;;;;;5035072;28;20249;-69
2022/08/30 04:46:43;;;;;;;1999.90;999.90;;;16.60;99.90;;;;;;5034820;28;20199;-68
2022/08/30 04:49:10;;;;;;;1999.90;999.90;;;16.60;99.90;;;;;;5034938;28;20199;-69
2022/08/30 04:51:39;;;;;;;1999.90;999.90;;;16.60;99.90;;;;;;5034427;28;20611;-71
2022/08/30 04:54:06;;;;;;;1999.90;999.90;;;16.60;99.90;;;;;;5034209;28;20207;-69
2022/08/30 04:56:33;;;;;;;1999.90;999.90;;;16.60;99.90;;;;;;5034199;28;20574;-69
2022/08/30 04:59:00;;;;;;;1999.90;999.90;;;16.60;99.90;;;;;;5034975;28;20193;-68
2022/08/30 05:01:30;;;;;;;1999.90;999.90;;;16.60;99.90;;;;;;5034565;28;20244;-70
2022/08/30 05:03:59;;;;;;;1999.90;999.90;;;16.60;99.90;;;;;;5034961;28;20202;-68
2022/08/30 05:06:29;;;;;;;1999.90;999.90;;;16.60;99.90;;;;;;5034819;28;20215;-68
2022/08/30 05:09:00;;;;;;;1999.90;999.90;;;16.60;99.90;;;;;;5034383;28;20202;-69
2022/08/30 05:11:28;;;;;;;1999.90;999.90;;;16.60;99.90;;;;;;5034219;28;20190;-68
2022/08/30 05:13:55;;;;;;;1999.90;999.90;;;16.70;99.90;;;;;;5034482;28;20561;-69
2022/08/30 05:16:23;;;;;;;1999.90;999.90;;;16.70;99.90;;;;;;5034426;28;20201;-68
2022/08/30 05:18:51;;;;;;;1999.90;999.90;;;16.70;99.90;;;;;;5034377;28;20207;-68
2022/08/30 05:21:20;;;;;;;1999.90;999.90;;;16.70;99.90;;;;;;5034011;28;20225;-69
2022/08/30 05:23:48;;;;;;;1999.90;999.90;;;16.80;99.90;;;;;;5034342;28;20204;-65
2022/08/30 05:26:19;;;;;;;1999.90;999.90;;;16.80;99.90;;;;;;5033982;28;20670;-69
2022/08/30 05:28:46;;;;;;;1999.90;999.90;;;16.90;99.90;;;;;;5033985;28;20553;-69
2022/08/30 05:31:16;;;;;;;1999.90;999.90;;;16.90;99.90;;;;;;5034293;28;20194;-68
2022/08/30 05:33:45;;;;;;;1999.90;999.90;;;17.00;99.90;;;;;;5034154;28;20188;-68
2022/08/30 05:36:15;;;;;;;1999.90;999.90;;;17.00;99.90;;;;;;5034414;28;20207;-68
2022/08/30 05:38:43;;;;;;;1999.90;999.90;;;17.00;99.90;;;;;;5033775;28;20223;-68
2022/08/30 05:41:10;;;;;;;1999.90;999.90;;;17.10;99.90;;;;;;5033803;28;20217;-72
2022/08/30 05:43:39;;;;;;;1999.90;999.90;;;17.20;99.90;;;;;;5033513;28;20675;-72
2022/08/30 05:46:09;;;;;;;1999.90;999.90;;;17.30;99.90;;;;;;5033241;28;20618;-71
2022/08/30 05:48:36;;;;;;;1999.90;999.90;;;17.30;99.90;;;;;;5034018;28;20205;-72
2022/08/30 05:51:07;;;;;;;1999.90;999.90;;;17.40;99.90;;;;;;5033740;28;20198;-69
2022/08/30 05:53:34;;;;;;;1999.90;999.90;;;17.50;99.90;;;;;;5033479;28;20193;-69
2022/08/30 05:56:02;;;;;;;1999.90;999.90;;;17.50;99.90;;;;;;5033259;28;20213;-69
2022/08/30 05:58:30;;;;;;;1999.90;999.90;;;17.60;99.90;;;;;;5033532;28;20198;-69
2022/08/30 06:00:59;;;;;;;1999.90;999.90;;;17.70;99.90;;;;;;5033021;28;20226;-68
2022/08/30 06:03:26;;;;;;;1999.90;999.90;;;17.80;99.90;;;;;;5033375;28;20214;-68
2022/08/30 06:05:54;;;;;;;1999.90;999.90;;;17.80;99.90;;;;;;5032471;28;20675;-68
2022/08/30 06:08:22;;;;;;;1999.90;999.90;;;17.80;99.90;;;;;;5033005;28;20694;-69
2022/08/30 06:10:49;;;;;;;1999.90;999.90;;;17.90;99.90;;;;;;5032923;28;20690;-69
2022/08/30 06:13:16;;;;;;;1999.90;999.90;;;18.30;99.90;;;;;;5032913;28;20193;-68
2022/08/30 06:15:44;;;;;;;1999.90;999.90;;;18.60;99.90;;;;;;5033001;28;20208;-68
2022/08/30 06:18:13;;;;;;;1999.90;999.90;;;18.80;99.90;;;;;;5033092;28;20196;-67
2022/08/30 06:20:42;;;;;;;1999.90;999.90;;;19.20;99.90;;;;;;5033029;28;20215;-69
2022/08/30 06:23:09;;;;;;;1999.90;999.90;;;19.50;99.90;;;;;;5032586;28;20211;-69
2022/08/30 06:25:37;;;;;;;1999.90;999.90;;;19.70;99.90;;;;;;5024934;28;20193;-67
2022/08/30 06:28:05;;;;;;;1999.90;999.90;;;20.20;99.90;;;;;;5012900;28;20266;-66
2022/08/30 06:30:32;;;;;;;1999.90;999.90;;;20.30;99.90;;;;;;5012964;28;20203;-66
2022/08/30 06:32:59;;;;;;;1999.90;999.90;;;20.30;99.90;;;;;;5013210;28;20189;-67
2022/08/30 06:35:28;;;;;;;1999.90;999.90;;;20.30;99.90;;;;;;5012823;28;20203;-66
2022/08/30 06:37:56;;;;;;;1999.90;999.90;;;20.40;99.90;;;;;;5012772;28;20197;-69
2022/08/30 06:40:23;;;;;;;1999.90;999.90;;;20.60;99.90;;;;;;5012568;28;20230;-67
2022/08/30 06:42:50;;;;;;;1999.90;999.90;;;20.90;99.90;;;;;;5012741;28;20201;-67
2022/08/30 06:45:17;;;;;;;1999.90;999.90;;;20.90;99.90;;;;;;5012849;28;20212;-67
2022/08/30 06:47:44;;;;;;;1999.90;999.90;;;21.10;99.90;;;;;;5012958;28;20193;-67
2022/08/30 06:50:13;;;;;;;1999.90;999.90;;;21.30;99.90;;;;;;5012925;28;20210;-67
2022/08/30 06:52:43;;;;;;;1999.90;999.90;;;21.20;99.90;;;;;;5012846;28;20197;-68
2022/08/30 06:55:11;;;;;;;1999.90;999.90;;;20.90;99.90;;;;;;5012427;28;20200;-68
2022/08/30 06:57:38;;;;;;;1999.90;999.90;;;20.50;99.90;;;;;;5012371;28;20245;-68
2022/08/30 07:00:08;;;;;;;1999.90;999.90;;;20.40;99.90;;;;;;5012518;28;20223;-68
2022/08/30 07:02:37;;;;;;;1999.90;999.90;;;20.30;99.90;;;;;;5012101;28;20217;-68
2022/08/30 07:05:05;;;;;;;1999.90;999.90;;;20.20;99.90;;;;;;5012685;28;20196;-68
2022/08/30 07:07:32;;;;;;;1999.90;999.90;;;20.20;99.90;;;;;;5012453;28;20207;-68
2022/08/30 07:10:02;;;;;;;1999.90;999.90;;;20.00;99.90;;;;;;5012351;28;20674;-68
2022/08/30 07:12:29;;;;;;;1999.90;999.90;;;20.10;99.90;;;;;;5012681;28;20199;-67
2022/08/30 07:14:56;;;;;;;1999.90;999.90;;;20.30;99.90;;;;;;5012333;28;20211;-66
2022/08/30 07:20:09;;;;;;;1999.90;999.90;;;20.90;99.90;;;;;;5016750;28;20388;-67
2022/08/30 07:22:36;;;;;;;1999.90;999.90;;;21.30;99.90;;;;;;5016267;28;20557;-68
2022/08/30 07:25:05;;;;;;;1999.90;999.90;;;21.50;99.90;;;;;;5016252;28;20579;-67
2022/08/30 07:27:32;;;;;;;1999.90;999.90;;;22.00;99.90;;;;;;5016526;28;20259;-66
2022/08/30 07:30:01;;;;;;;1999.90;999.90;;;22.50;99.90;;;;;;5016503;28;20200;-67
2022/08/30 07:32:28;;;;;;;1999.90;999.90;;;22.60;99.90;;;;;;5016242;28;20723;-67
2022/08/30 07:34:55;;;;;;;1999.90;999.90;;;22.20;99.90;;;;;;5016159;28;20544;-67
2022/08/30 07:37:22;;;;;;;1999.90;999.90;;;21.90;99.90;;;;;;5016053;28;20201;-67
2022/08/30 07:39:49;;;;;;;1999.90;999.90;;;21.70;99.90;;;;;;5016203;28;20677;-67
2022/08/30 07:42:18;;;;;;;1999.90;999.90;;;22.00;99.90;;;;;;5016181;28;20235;-67
2022/08/30 07:44:45;;;;;;;1999.90;999.90;;;22.30;99.90;;;;;;5015782;28;20678;-67
2022/08/30 07:47:12;;;;;;;1999.90;999.90;;;22.30;99.90;;;;;;5016214;28;20207;-67
2022/08/30 07:49:39;;;;;;;1999.90;999.90;;;22.20;99.90;;;;;;5016102;28;20223;-68
2022/08/30 07:52:06;;;;;;;1999.90;999.90;;;22.70;99.90;;;;;;5016116;28;20553;-69
2022/08/30 07:54:34;;;;;;;1999.90;999.90;;;22.80;99.90;;;;;;5015960;28;20207;-68
2022/08/30 07:57:01;;;;;;;1999.90;999.90;;;22.60;99.90;;;;;;5015513;28;20239;-65
2022/08/30 07:59:29;;;;;;;1999.90;999.90;;;22.40;99.90;;;;;;5015637;28;20770;-68
2022/08/30 08:01:56;;;;;;;1999.90;999.90;;;22.50;99.90;;;;;;5015455;28;20216;-68
2022/08/30 08:04:23;;;;;;;1999.90;999.90;;;22.60;97.90;;;;;;5015600;28;20200;-68
2022/08/30 08:06:50;;;;;;;1999.90;999.90;;;22.60;81.20;;;;;;5015507;28;20674;-68
2022/08/30 08:09:18;;;;;;;1999.90;999.90;;;22.40;90.80;;;;;;5015659;28;20203;-68
2022/08/30 08:11:45;;;;;;;1999.90;999.90;;;22.30;83.00;;;;;;5015417;28;20197;-68
2022/08/30 08:14:12;;;;;;;1999.90;999.90;;;22.30;93.10;;;;;;5015350;28;20201;-68
2022/08/30 08:16:43;;;;;;;1999.90;999.90;;;22.10;92.50;;;;;;5015517;28;20204;-68
2022/08/30 08:19:11;;;;;;;1999.90;999.90;;;22.20;93.20;;;;;;5015304;28;20177;-67
2022/08/30 08:21:38;;;;;;;1999.90;999.90;;;22.20;93.90;;;;;;5015150;28;20571;-67
2022/08/30 08:24:05;;;;;;;1999.90;999.90;;;22.40;95.80;;;;;;5015407;28;20207;-68
2022/08/30 08:26:34;;;;;;;1999.90;999.90;;;22.80;54.10;;;;;;5015452;28;20211;-68
2022/08/30 08:29:02;;;;;;;1999.90;999.90;;;22.90;24.00;;;;;;5014886;28;20193;-68
2022/08/30 08:31:29;;;;;;;1999.90;999.90;;;23.10;22.90;;;;;;5015017;28;20694;-68
2022/08/30 08:33:58;;;;;;;1999.90;999.90;;;23.20;8.20;;;;;;5015013;28;20696;-67
2022/08/30 08:36:26;;;;;;;1999.90;999.90;;;23.40;4.70;;;;;;5014980;28;20564;-68
2022/08/30 08:38:53;;;;;;;1999.90;999.90;;;23.80;1.00;;;;;;5015198;28;20204;-68
2022/08/30 08:41:31;;;;;;;1999.90;999.90;;;24.10;1.00;;;;;;5014766;28;20224;-69
2022/08/30 08:43:59;;;;;;;1999.90;999.90;;;23.80;1.00;;;;;;5015193;28;20185;-68
2022/08/30 08:46:32;;;;;;;1999.90;999.90;;;23.80;1.00;;;;;;5014926;28;20209;-68
2022/08/30 08:49:05;;;;;;;1999.90;999.90;;;23.50;1.00;;;;;;5015077;28;20190;-68
2022/08/30 08:54:27;;;;;;;1999.90;999.90;;;24.00;1.00;;;;;;5014451;28;20523;-67
2022/08/30 08:56:54;;;;;;;1999.90;999.90;;;24.60;1.00;;;;;;5014322;28;20736;-70
2022/08/30 08:59:22;;;;;;;1999.90;999.90;;;24.50;1.00;;;;;;5014851;28;20197;-72
2022/08/30 09:01:49;;;;;;;1999.90;999.90;;;23.90;1.00;;;;;;5014369;28;20223;-71
2022/08/30 09:04:23;;;;;;;1999.90;999.90;;;23.60;1.00;;;;;;5014717;28;20209;-71
2022/08/30 09:06:54;;;;;;;1999.90;999.90;;;23.80;1.00;;;;;;5014765;28;20188;-72
2022/08/30 09:09:26;;;;;;;1999.90;999.90;;;23.90;1.00;;;;;;5014422;28;20235;-71
2022/08/30 09:11:53;;;;;;;1999.90;999.90;;;24.20;1.00;;;;;;5014401;28;20180;-70
2022/08/30 09:14:23;;;;;;;1999.90;999.90;;;24.40;1.00;;;;;;5014484;28;20197;-69
2022/08/30 09:16:59;;;;;;;1999.90;999.90;;;24.50;1.00;;;;;;5014109;28;20197;-71
2022/08/30 09:19:36;;;;;;;1999.90;999.90;;;24.60;1.00;;;;;;5014540;28;20185;-71
2022/08/30 09:22:11;;;;;;;1999.90;999.90;;;24.60;1.00;;;;;;5014115;28;20646;-71
2022/08/30 09:24:41;;;;;;;1999.90;999.90;;;24.70;1.00;;;;;;5014019;28;20195;-69
2022/08/30 09:27:25;;;;;;;1999.90;999.90;;;24.60;1.00;;;;;;5014036;28;20700;-69
2022/08/30 09:29:58;;;;;;;1999.90;999.90;;;24.70;1.00;;;;;;5014038;28;20634;-70
2022/08/30 09:32:28;;;;;;;1999.90;999.90;;;24.90;1.00;;;;;;5014239;28;20185;-70
2022/08/30 09:34:58;;;;;;;1999.90;999.90;;;25.20;1.00;;;;;;5014272;28;20192;-70
2022/08/30 09:37:31;;;;;;;1999.90;999.90;;;25.50;1.00;;;;;;5014429;28;20205;-72
2022/08/30 09:39:59;;;;;;;1999.90;999.90;;;25.90;1.00;;;;;;5013511;28;20185;-72
2022/08/30 09:42:29;;;;;;;1999.90;999.90;;;25.90;1.00;;;;;;5014005;28;20704;-73
2022/08/30 09:45:09;;;;;;;1999.90;999.90;;;26.10;1.00;;;;;;5013928;28;20235;-72
2022/08/30 09:47:38;;;;;;;1999.90;999.90;;;26.40;1.00;;;;;;5013745;28;20188;-72
2022/08/30 09:50:10;;;;;;;1999.90;999.90;;;26.80;1.00;;;;;;5014138;28;20189;-71
2022/08/30 09:52:56;;;;;;;1999.90;999.90;;;26.90;1.00;;;;;;5013705;28;20644;-72
2022/08/30 09:55:54;;;;;;;1999.90;999.90;;;27.00;1.00;;;;;;5013805;28;20193;-72
2022/08/30 09:58:35;;;;;;;1999.90;999.90;;;26.80;1.00;;;;;;5014418;28;20247;-72
2022/08/30 10:01:10;;;;;;;1999.90;999.90;;;26.50;1.00;;;;;;5013953;28;20199;-72
2022/08/30 10:03:44;;;;;;;1999.90;999.90;;;26.30;1.00;;;;;;5013306;28;20602;-73
2022/08/30 10:06:23;;;;;;;1999.90;999.90;;;26.40;1.00;;;;;;5013859;28;20185;-72
2022/08/30 10:09:01;;;;;;;1999.90;999.90;;;27.00;1.00;;;;;;5014211;28;20195;-72
2022/08/30 10:11:33;;;;;;;1999.90;999.90;;;26.80;1.00;;;;;;5014201;28;20295;-72
2022/08/30 10:14:28;;;;;;;1999.90;999.90;;;26.70;1.00;;;;;;5013678;28;20665;-72
2022/08/30 10:17:01;;;;;;;1999.90;999.90;;;25.90;1.00;;;;;;5013464;28;20650;-73
2022/08/30 10:19:43;;;;;;;1999.90;999.90;;;26.00;1.00;;;;;;5013661;28;20594;-73
2022/08/30 10:22:16;;;;;;;1999.90;999.90;;;25.90;1.00;;;;;;5013257;28;20221;-67
2022/08/30 10:24:47;;;;;;;1999.90;999.90;;;26.00;1.00;;;;;;5013197;28;20187;-67
2022/08/30 10:27:17;;;;;;;1999.90;999.90;;;26.30;1.00;;;;;;5013045;28;20185;-67
2022/08/30 10:29:49;;;;;;;1999.90;999.90;;;26.80;1.00;;;;;;5012986;28;20517;-67
2022/08/30 10:32:21;;;;;;;1999.90;999.90;;;27.20;1.00;;;;;;5013201;28;20187;-67
2022/08/30 10:34:54;;;;;;;1999.90;999.90;;;27.30;1.00;;;;;;5013230;28;20191;-67
2022/08/30 10:37:26;;;;;;;1999.90;999.90;;;27.80;1.00;;;;;;5013068;28;20185;-67
2022/08/30 10:39:57;;;;;;;1999.90;999.90;;;27.80;1.00;;;;;;5013105;28;20197;-67
2022/08/30 10:42:28;;;;;;;1999.90;999.90;;;27.60;1.00;;;;;;5013011;28;20201;-67
2022/08/30 10:45:01;;;;;;;1999.90;999.90;;;27.40;1.00;;;;;;5012617;28;20670;-66
2022/08/30 10:47:36;;;;;;;1999.90;999.90;;;27.50;1.00;;;;;;5012702;28;20540;-66
2022/08/30 10:50:12;;;;;;;1999.90;999.90;;;27.60;1.00;;;;;;5012661;28;20206;-66
2022/08/30 10:52:47;;;;;;;1999.90;999.90;;;27.30;1.00;;;;;;5012703;28;20185;-67
2022/08/30 10:55:20;;;;;;;1999.90;999.90;;;27.10;1.00;;;;;;5012763;28;20188;-67
2022/08/30 10:57:47;;;;;;;1999.90;999.90;;;27.10;1.00;;;;;;5012439;28;20239;-66
2022/08/30 11:00:22;;;;;;;1999.90;999.90;;;26.80;1.00;;;;;;5012452;28;20201;-66
2022/08/30 11:03:22;;;;;;;1999.90;999.90;;;26.80;1.00;;;;;;5012712;28;20254;-66
2022/08/30 11:06:10;;;;;;;1999.90;999.90;;;26.80;1.00;;;;;;5012773;28;20189;-67
2022/08/30 11:09:03;;;;;;;1999.90;999.90;;;26.90;1.00;;;;;;5012817;28;20192;-66
2022/08/30 11:11:41;;;;;;;1999.90;999.90;;;26.90;1.00;;;;;;5012355;28;20654;-66
2022/08/30 11:14:13;;;;;;;1999.90;999.90;;;26.90;1.00;;;;;;5012613;28;20192;-67
2022/08/30 11:16:43;;;;;;;1999.90;999.90;;;27.40;1.00;;;;;;5012552;28;20193;-67
2022/08/30 11:19:17;;;;;;;1999.90;999.90;;;27.60;1.00;;;;;;5012380;28;20642;-67
2022/08/30 11:21:45;;;;;;;1999.90;999.90;;;27.60;1.00;;;;;;5012314;28;20208;-66
2022/08/30 11:24:16;;;;;;;1999.90;999.90;;;27.90;1.00;;;;;;5012384;28;20213;-67
2022/08/30 11:26:59;;;;;;;1999.90;999.90;;;28.30;1.00;;;;;;5012335;28;20207;-67
2022/08/30 11:29:38;;;;;;;1999.90;999.90;;;27.80;1.00;;;;;;5012625;28;20193;-67
2022/08/30 11:32:45;;;;;;;1999.90;999.90;;;27.90;1.00;;;;;;5012586;28;20186;-67
2022/08/30 11:35:41;;;;;;;1999.90;999.90;;;27.90;1.00;;;;;;5012085;28;20563;-67
2022/08/30 11:38:19;;;;;;;1999.90;999.90;;;28.20;1.00;;;;;;5012537;28;20188;-67
2022/08/30 11:40:52;;;;;;;1999.90;999.90;;;27.90;1.00;;;;;;5012226;28;20219;-67
2022/08/30 11:43:50;;;;;;;1999.90;999.90;;;27.60;1.00;;;;;;5012426;28;20209;-67
2022/08/30 11:46:23;;;;;;;1999.90;999.90;;;27.70;1.00;;;;;;4951553;29;20203;-67
2022/08/30 11:48:53;;;;;;;1999.90;999.90;;;27.90;1.00;;;;;;4951638;29;20222;-67
2022/08/30 11:51:36;;;;;;;1999.90;999.90;;;27.90;1.00;;;;;;4951619;29;20246;-67
2022/08/30 11:54:15;;;;;;;1999.90;999.90;;;27.80;1.00;;;;;;4951512;29;20191;-68
2022/08/30 11:56:54;;;;;;;1999.90;999.90;;;27.30;1.00;;;;;;4951384;29;20831;-68
2022/08/30 11:59:29;;;;;;;1999.90;999.90;;;27.20;1.00;;;;;;4951530;29;20600;-67
2022/08/30 12:01:56;;;;;;;1999.90;999.90;;;26.90;1.00;;;;;;4951552;28;20206;-67
2022/08/30 12:04:36;;;;;;;1999.90;999.90;;;26.90;1.00;;;;;;4954099;29;20219;-67
2022/08/30 12:07:07;;;;;;;1999.90;999.90;;;27.00;1.00;;;;;;4955037;29;20187;-67
2022/08/30 12:10:06;;;;;;;1999.90;999.90;;;27.20;1.00;;;;;;4954970;29;20299;-67
2022/08/30 12:12:54;;;;;;;1999.90;999.90;;;27.20;1.00;;;;;;4954962;29;20752;-67
2022/08/30 12:15:53;;;;;;;1999.90;999.90;;;27.00;1.00;;;;;;4954693;29;20298;-67
2022/08/30 12:18:30;;;;;;;1999.90;999.90;;;27.20;1.00;;;;;;4954821;29;20195;-68
2022/08/30 12:21:04;;;;;;;1999.90;999.90;;;27.50;1.00;;;;;;4957679;28;20183;-68
2022/08/30 12:23:46;;;;;;;1999.90;999.90;;;27.50;1.00;;;;;;4995609;28;20214;-68